Time;durP1;ratioP1;P1;durP2;ratioP2;P2;SDS_P1;SDS_P2;PMS_P1;PMS_P2;Temp;Humidity;BMP_temperature;BMP_pressure;BME280_temperature;BME280_humidity;BME280_pressure;Samples;Min_cycle;Max_cycle;Signal;HPM_P1;HPM_P2
2022/07/08 00:01:02;;;;;;;14.85;2.45;;;;;;;;;;4946757;28;20043;-65
2022/07/08 00:03:27;;;;;;;14.55;2.05;;;;;;;;;;4931876;28;20035;-66
2022/07/08 00:05:55;;;;;;;20.58;2.65;;;;;;;;;;4931642;28;20057;-65
2022/07/08 00:08:20;;;;;;;24.30;2.75;;;;;;;;;;4931627;28;20126;-66
2022/07/08 00:10:46;;;;;;;18.90;2.50;;;;;;;;;;4946833;28;20035;-65
2022/07/08 00:13:14;;;;;;;20.85;3.13;;;;;;;;;;4930751;28;20039;-65
2022/07/08 00:15:39;;;;;;;14.10;1.83;;;;;;;;;;4930831;28;20039;-65
2022/07/08 00:18:05;;;;;;;20.73;2.22;;;;;;;;;;4932257;28;20058;-65
2022/07/08 00:20:30;;;;;;;13.90;2.20;;;;;;;;;;4923059;28;20097;-66
2022/07/08 00:22:56;;;;;;;17.52;2.25;;;;;;;;;;4932691;28;20733;-65
2022/07/08 00:25:24;;;;;;;14.60;2.25;;;;;;;;;;4932207;28;20026;-64
2022/07/08 00:27:49;;;;;;;18.58;2.63;;;;;;;;;;4930675;28;20035;-66
2022/07/08 00:30:14;;;;;;;13.40;2.83;;;;;;;;;;4932269;28;20148;-66
2022/07/08 00:32:40;;;;;;;12.95;1.92;;;;;;;;;;4931491;28;20031;-63
2022/07/08 00:35:08;;;;;;;17.30;2.22;;;;;;;;;;4932973;28;20039;-65
2022/07/08 00:37:33;;;;;;;13.43;2.28;;;;;;;;;;4936263;28;20043;-64
2022/07/08 00:39:58;;;;;;;20.02;2.63;;;;;;;;;;4935170;28;20575;-65
2022/07/08 00:42:24;;;;;;;15.55;2.78;;;;;;;;;;4935465;28;20054;-64
2022/07/08 00:44:52;;;;;;;17.33;2.60;;;;;;;;;;4937463;28;20238;-64
2022/07/08 00:47:17;;;;;;;14.95;2.45;;;;;;;;;;4935496;28;20042;-64
2022/07/08 00:49:42;;;;;;;16.65;2.13;;;;;;;;;;4941911;28;20112;-64
2022/07/08 00:52:08;;;;;;;15.50;2.53;;;;;;;;;;4935321;28;20096;-65
2022/07/08 00:54:34;;;;;;;23.33;2.83;;;;;;;;;;4950556;28;20198;-65
2022/07/08 00:56:59;;;;;;;17.77;2.78;;;;;;;;;;4934217;28;20042;-65
2022/07/08 00:59:25;;;;;;;17.52;2.03;;;;;;;;;;4949642;28;20050;-65
2022/07/08 01:01:50;;;;;;;13.60;2.15;;;;;;;;;;4935180;28;20889;-65
2022/07/08 01:04:16;;;;;;;15.65;2.88;;;;;;;;;;4934506;28;20034;-64
2022/07/08 01:06:41;;;;;;;19.10;2.80;;;;;;;;;;4933258;28;20066;-64
2022/07/08 01:09:07;;;;;;;17.52;2.60;;;;;;;;;;4943883;28;20071;-65
2022/07/08 01:11:33;;;;;;;18.23;2.20;;;;;;;;;;4934313;28;20074;-65
2022/07/08 01:13:58;;;;;;;16.52;2.00;;;;;;;;;;4934561;28;20054;-65
2022/07/08 01:16:23;;;;;;;23.30;2.78;;;;;;;;;;4935070;28;20054;-64
2022/07/08 01:18:48;;;;;;;13.38;2.08;;;;;;;;;;4938995;28;20114;-65
2022/07/08 01:21:14;;;;;;;17.10;2.33;;;;;;;;;;4943753;28;20092;-65
2022/07/08 01:23:39;;;;;;;10.93;1.90;;;;;;;;;;4949490;28;20254;-64
2022/07/08 01:26:08;;;;;;;12.00;1.80;;;;;;;;;;4935434;28;20034;-65
2022/07/08 01:28:34;;;;;;;12.60;2.38;;;;;;;;;;4934514;28;20139;-64
2022/07/08 01:31:03;;;;;;;16.30;2.00;;;;;;;;;;4934894;28;20027;-65
2022/07/08 01:33:29;;;;;;;20.13;2.85;;;;;;;;;;4934252;28;20027;-65
2022/07/08 01:35:54;;;;;;;13.65;2.28;;;;;;;;;;4934283;28;20980;-65
2022/07/08 01:38:22;;;;;;;17.05;2.45;;;;;;;;;;4934782;28;20034;-65
2022/07/08 01:40:47;;;;;;;16.23;2.22;;;;;;;;;;4948075;28;20038;-64
2022/07/08 01:43:12;;;;;;;14.38;2.70;;;;;;;;;;4934796;28;20067;-64
2022/07/08 01:45:37;;;;;;;12.85;2.30;;;;;;;;;;4933747;28;20035;-64
2022/07/08 01:48:03;;;;;;;14.60;1.77;;;;;;;;;;4934622;28;20031;-65
2022/07/08 01:50:28;;;;;;;16.38;2.67;;;;;;;;;;4949081;28;20136;-65
2022/07/08 01:52:54;;;;;;;18.27;2.45;;;;;;;;;;4934020;28;20026;-65
2022/07/08 01:55:20;;;;;;;16.60;2.13;;;;;;;;;;4948730;28;20110;-65
2022/07/08 01:57:47;;;;;;;12.50;1.90;;;;;;;;;;4933831;28;20059;-65
2022/07/08 02:00:16;;;;;;;13.68;2.10;;;;;;;;;;4934156;28;20129;-65
2022/07/08 02:02:41;;;;;;;18.83;2.72;;;;;;;;;;4948582;28;20065;-65
2022/07/08 02:05:07;;;;;;;24.45;3.10;;;;;;;;;;4934043;28;20035;-65
2022/07/08 02:07:33;;;;;;;15.60;2.45;;;;;;;;;;4934791;28;20062;-65
2022/07/08 02:09:59;;;;;;;12.80;2.33;;;;;;;;;;4936113;28;20035;-65
2022/07/08 02:12:24;;;;;;;13.40;2.80;;;;;;;;;;4931677;28;20924;-64
2022/07/08 02:14:53;;;;;;;17.25;2.58;;;;;;;;;;4937979;28;20039;-64
2022/07/08 02:17:23;;;;;;;16.95;2.72;;;;;;;;;;4934522;28;20150;-65
2022/07/08 02:19:48;;;;;;;16.40;2.20;;;;;;;;;;4933541;28;20030;-65
2022/07/08 02:22:14;;;;;;;19.73;2.45;;;;;;;;;;4933530;28;20221;-65
2022/07/08 02:24:39;;;;;;;15.93;2.50;;;;;;;;;;4933922;28;20254;-65
2022/07/08 02:27:05;;;;;;;25.05;3.08;;;;;;;;;;4931243;28;20035;-65
2022/07/08 02:29:30;;;;;;;16.17;2.50;;;;;;;;;;4932057;28;20121;-64
2022/07/08 02:31:56;;;;;;;16.38;2.10;;;;;;;;;;4933293;28;20033;-65
2022/07/08 02:34:24;;;;;;;16.55;2.30;;;;;;;;;;4933372;28;22324;-64
2022/07/08 02:36:49;;;;;;;13.75;1.90;;;;;;;;;;4932112;28;20054;-64
2022/07/08 02:39:15;;;;;;;14.70;2.22;;;;;;;;;;4933047;28;20243;-66
2022/07/08 02:41:41;;;;;;;16.25;2.80;;;;;;;;;;4933935;28;20031;-64
2022/07/08 02:44:06;;;;;;;15.88;2.50;;;;;;;;;;4931984;28;20042;-64
2022/07/08 02:46:32;;;;;;;14.57;2.85;;;;;;;;;;4931298;28;20042;-65
2022/07/08 02:48:57;;;;;;;17.42;3.10;;;;;;;;;;4933122;28;20086;-64
2022/07/08 02:51:23;;;;;;;24.13;3.22;;;;;;;;;;4933195;28;20052;-66
2022/07/08 02:53:48;;;;;;;14.65;2.20;;;;;;;;;;4947475;28;20637;-64
2022/07/08 02:56:16;;;;;;;17.75;2.20;;;;;;;;;;4933487;28;20076;-66
2022/07/08 02:58:41;;;;;;;15.07;2.05;;;;;;;;;;4946771;28;20038;-65
2022/07/08 03:01:06;;;;;;;20.70;2.67;;;;;;;;;;4932977;28;20132;-65
2022/07/08 03:03:32;;;;;;;13.15;2.58;;;;;;;;;;4931355;28;20031;-65
2022/07/08 03:05:57;;;;;;;11.25;2.20;;;;;;;;;;4932863;28;20135;-65
2022/07/08 03:08:22;;;;;;;13.02;2.63;;;;;;;;;;4933277;28;20039;-65
2022/07/08 03:10:49;;;;;;;10.75;2.30;;;;;;;;;;4931701;28;20837;-65
2022/07/08 03:13:14;;;;;;;19.95;2.83;;;;;;;;;;4933753;28;20058;-65
2022/07/08 03:15:39;;;;;;;18.52;2.45;;;;;;;;;;4932185;28;20030;-66
2022/07/08 03:18:05;;;;;;;16.83;2.88;;;;;;;;;;4932572;28;20141;-65
2022/07/08 03:20:30;;;;;;;12.52;1.98;;;;;;;;;;4930474;28;20154;-62
2022/07/08 03:22:55;;;;;;;20.02;2.65;;;;;;;;;;4933001;28;20043;-64
2022/07/08 03:25:21;;;;;;;18.75;2.75;;;;;;;;;;4932581;28;20039;-64
2022/07/08 03:27:48;;;;;;;19.40;2.25;;;;;;;;;;4932087;28;20114;-66
2022/07/08 03:30:14;;;;;;;14.00;2.58;;;;;;;;;;4933612;28;20146;-65
2022/07/08 03:32:39;;;;;;;14.13;2.40;;;;;;;;;;4932051;28;20711;-66
2022/07/08 03:35:04;;;;;;;18.73;2.30;;;;;;;;;;4930544;28;20038;-64
2022/07/08 03:37:29;;;;;;;13.52;2.40;;;;;;;;;;4932532;28;20058;-65
2022/07/08 03:41:19;;;;;;;17.35;2.42;;;;;;;;;;4933422;28;20063;-65
2022/07/08 03:42:40;;;;;;;10.90;2.47;;;;;;;;;;4932431;28;20034;-65
2022/07/08 03:45:05;;;;;;;13.98;2.00;;;;;;;;;;4933197;28;20073;-66
2022/07/08 03:47:33;;;;;;;12.68;2.40;;;;;;;;;;4930466;28;20042;-66
2022/07/08 03:49:58;;;;;;;17.35;2.53;;;;;;;;;;4931666;28;20046;-65
2022/07/08 03:52:24;;;;;;;19.92;2.63;;;;;;;;;;4929679;28;20035;-66
2022/07/08 03:54:49;;;;;;;17.08;3.03;;;;;;;;;;4931730;28;20104;-66
2022/07/08 03:57:15;;;;;;;15.18;3.53;;;;;;;;;;4932607;28;20042;-65
2022/07/08 03:59:40;;;;;;;11.90;2.40;;;;;;;;;;4930657;28;20114;-65
2022/07/08 04:02:05;;;;;;;13.48;2.30;;;;;;;;;;4946106;28;20051;-65
2022/07/08 04:04:30;;;;;;;15.20;2.72;;;;;;;;;;4946597;28;20035;-64
2022/07/08 04:06:56;;;;;;;17.13;3.08;;;;;;;;;;4931782;28;20041;-65
2022/07/08 04:09:21;;;;;;;23.27;3.58;;;;;;;;;;4931757;28;20031;-66
2022/07/08 04:11:47;;;;;;;18.15;2.75;;;;;;;;;;4931101;28;22671;-65
2022/07/08 04:14:12;;;;;;;16.05;3.25;;;;;;;;;;4932410;28;20170;-65
2022/07/08 04:16:37;;;;;;;18.42;2.95;;;;;;;;;;4931223;28;20062;-67
2022/07/08 04:19:03;;;;;;;20.40;2.90;;;;;;;;;;4931604;28;20041;-65
2022/07/08 04:21:28;;;;;;;13.20;2.83;;;;;;;;;;4932621;28;20046;-65
2022/07/08 04:23:58;;;;;;;14.30;2.50;;;;;;;;;;4931860;28;20039;-65
2022/07/08 04:26:28;;;;;;;11.85;2.58;;;;;;;;;;4930836;28;20038;-64
2022/07/08 04:28:53;;;;;;;16.42;2.88;;;;;;;;;;4946205;28;20039;-65
2022/07/08 04:31:18;;;;;;;18.67;3.10;;;;;;;;;;4933249;28;20121;-65
2022/07/08 04:33:43;;;;;;;18.58;2.75;;;;;;;;;;4930872;28;20105;-64
2022/07/08 04:36:09;;;;;;;10.25;2.28;;;;;;;;;;4930790;28;20039;-64
2022/07/08 04:38:34;;;;;;;15.80;2.38;;;;;;;;;;4945703;28;20137;-64
2022/07/08 04:40:59;;;;;;;16.73;2.90;;;;;;;;;;4945947;28;20038;-66
2022/07/08 04:43:27;;;;;;;15.90;2.95;;;;;;;;;;4931672;28;20070;-65
2022/07/08 04:45:52;;;;;;;11.80;2.78;;;;;;;;;;4931663;28;20103;-64
2022/07/08 04:48:17;;;;;;;11.40;2.35;;;;;;;;;;4931580;28;20042;-63
2022/07/08 04:50:42;;;;;;;14.93;2.35;;;;;;;;;;4919630;28;20038;-63
2022/07/08 04:53:10;;;;;;;17.35;2.80;;;;;;;;;;4932499;28;20165;-64
2022/07/08 04:55:35;;;;;;;10.25;2.20;;;;;;;;;;4945300;28;20186;-64
2022/07/08 04:58:01;;;;;;;14.40;2.70;;;;;;;;;;4930442;28;20052;-64
2022/07/08 05:00:27;;;;;;;18.30;2.97;;;;;;;;;;4930283;28;20475;-65
2022/07/08 05:02:53;;;;;;;11.25;2.40;;;;;;;;;;4930276;28;20035;-65
2022/07/08 05:05:18;;;;;;;12.70;2.15;;;;;;;;;;4930961;28;20097;-66
2022/07/08 05:07:43;;;;;;;16.75;2.20;;;;;;;;;;4932015;28;20109;-63
2022/07/08 05:10:09;;;;;;;16.85;2.80;;;;;;;;;;4933199;28;20058;-63
2022/07/08 05:12:34;;;;;;;17.63;3.22;;;;;;;;;;4930852;28;20050;-64
2022/07/08 05:15:00;;;;;;;15.48;2.55;;;;;;;;;;4930189;28;20573;-65
2022/07/08 05:17:25;;;;;;;9.10;2.13;;;;;;;;;;4930905;28;20591;-64
2022/07/08 05:19:50;;;;;;;12.05;2.25;;;;;;;;;;4929139;28;20035;-65
2022/07/08 05:22:20;;;;;;;12.52;2.47;;;;;;;;;;4938376;28;20038;-65
2022/07/08 05:24:48;;;;;;;9.05;2.00;;;;;;;;;;4934452;28;20583;-66
2022/07/08 05:27:16;;;;;;;14.85;2.17;;;;;;;;;;4935341;28;20042;-65
2022/07/08 05:29:41;;;;;;;15.40;2.75;;;;;;;;;;4938732;28;20038;-66
2022/07/08 05:32:07;;;;;;;15.65;2.53;;;;;;;;;;4949047;28;20979;-65
2022/07/08 05:34:32;;;;;;;18.05;2.38;;;;;;;;;;4948352;28;20145;-64
2022/07/08 05:36:58;;;;;;;13.10;2.65;;;;;;;;;;4948204;28;20046;-65
2022/07/08 05:39:23;;;;;;;19.13;2.85;;;;;;;;;;4935393;28;20038;-66
2022/07/08 05:41:48;;;;;;;12.48;2.28;;;;;;;;;;4938669;28;20888;-65
2022/07/08 05:44:14;;;;;;;11.35;2.10;;;;;;;;;;4933011;28;20814;-65
2022/07/08 05:46:39;;;;;;;13.57;2.45;;;;;;;;;;4933877;28;20165;-65
2022/07/08 05:49:05;;;;;;;10.23;2.20;;;;;;;;;;4935433;28;21177;-65
2022/07/08 05:51:30;;;;;;;10.25;2.05;;;;;;;;;;4934665;28;20046;-64
2022/07/08 05:53:55;;;;;;;9.60;2.20;;;;;;;;;;4934355;28;20046;-64
2022/07/08 05:56:24;;;;;;;22.65;2.53;;;;;;;;;;4933512;28;20229;-65
2022/07/08 05:58:49;;;;;;;15.02;2.65;;;;;;;;;;4947288;28;20039;-64
2022/07/08 06:01:15;;;;;;;13.48;2.30;;;;;;;;;;4934130;28;20093;-65
2022/07/08 06:03:40;;;;;;;13.15;2.40;;;;;;;;;;4940133;28;20038;-65
2022/07/08 06:06:05;;;;;;;17.25;2.50;;;;;;;;;;4947728;28;20190;-65
2022/07/08 06:08:31;;;;;;;19.48;2.78;;;;;;;;;;4933659;28;20031;-66
2022/07/08 06:10:56;;;;;;;10.50;1.98;;;;;;;;;;4932994;28;20035;-65
2022/07/08 06:13:22;;;;;;;15.75;2.42;;;;;;;;;;4932988;28;20046;-65
2022/07/08 06:15:47;;;;;;;18.05;2.58;;;;;;;;;;4934513;28;20084;-66
2022/07/08 06:18:15;;;;;;;11.68;2.10;;;;;;;;;;4933612;28;20866;-66
2022/07/08 06:20:43;;;;;;;10.60;2.10;;;;;;;;;;4932295;28;20039;-65
2022/07/08 06:23:09;;;;;;;13.10;2.30;;;;;;;;;;4933852;28;20039;-66
2022/07/08 06:25:37;;;;;;;10.10;2.05;;;;;;;;;;4932565;28;20141;-65
2022/07/08 06:28:02;;;;;;;11.95;2.38;;;;;;;;;;4934393;28;20117;-64
2022/07/08 06:30:28;;;;;;;10.38;2.05;;;;;;;;;;4936665;28;20081;-64
2022/07/08 06:32:54;;;;;;;15.32;2.42;;;;;;;;;;4929553;28;20407;-64
2022/07/08 06:35:19;;;;;;;11.88;2.08;;;;;;;;;;4927874;28;20039;-65
2022/07/08 06:37:44;;;;;;;12.75;2.00;;;;;;;;;;4936476;28;20046;-66
2022/07/08 06:40:10;;;;;;;17.50;2.22;;;;;;;;;;4929705;28;20043;-66
2022/07/08 06:42:38;;;;;;;14.23;2.65;;;;;;;;;;4927633;28;20534;-66
2022/07/08 06:45:06;;;;;;;12.63;2.22;;;;;;;;;;4930026;28;20034;-65
2022/07/08 06:47:31;;;;;;;12.80;2.67;;;;;;;;;;4941880;28;20684;-65
2022/07/08 06:49:57;;;;;;;12.90;2.45;;;;;;;;;;4929509;28;20042;-66
2022/07/08 06:52:22;;;;;;;10.63;1.85;;;;;;;;;;4928732;28;21941;-65
2022/07/08 06:54:48;;;;;;;14.85;2.38;;;;;;;;;;4930191;28;20075;-65
2022/07/08 06:57:16;;;;;;;14.02;2.53;;;;;;;;;;4928354;28;20121;-66
2022/07/08 06:59:43;;;;;;;15.02;2.15;;;;;;;;;;4929067;28;20038;-65
2022/07/08 07:02:08;;;;;;;12.57;2.15;;;;;;;;;;4943230;28;20281;-65
2022/07/08 07:04:34;;;;;;;15.27;2.03;;;;;;;;;;4930780;28;20162;-66
2022/07/08 07:06:59;;;;;;;12.35;2.08;;;;;;;;;;4932829;28;20085;-64
2022/07/08 07:09:25;;;;;;;16.23;2.20;;;;;;;;;;4932269;28;20117;-66
2022/07/08 07:11:50;;;;;;;5.60;1.98;;;;;;;;;;4932080;28;20066;-64
2022/07/08 07:14:16;;;;;;;12.32;2.25;;;;;;;;;;4930578;28;20133;-66
2022/07/08 07:16:42;;;;;;;14.75;2.17;;;;;;;;;;4928444;28;20046;-65
2022/07/08 07:19:10;;;;;;;10.57;2.13;;;;;;;;;;4927896;28;20168;-67
2022/07/08 07:21:35;;;;;;;13.38;2.10;;;;;;;;;;4928869;28;20443;-65
2022/07/08 07:24:00;;;;;;;12.40;2.08;;;;;;;;;;4927971;28;20149;-66
2022/07/08 07:26:26;;;;;;;11.32;2.40;;;;;;;;;;4925739;28;20047;-66
2022/07/08 07:28:51;;;;;;;10.30;1.85;;;;;;;;;;4926899;28;20038;-66
2022/07/08 07:31:16;;;;;;;10.00;2.05;;;;;;;;;;4927184;28;20145;-67
2022/07/08 07:33:42;;;;;;;13.02;2.03;;;;;;;;;;4928732;28;20630;-66
2022/07/08 07:36:07;;;;;;;13.50;2.00;;;;;;;;;;4942063;28;22283;-66
2022/07/08 07:38:34;;;;;;;8.20;1.75;;;;;;;;;;4931851;28;20787;-67
2022/07/08 07:41:03;;;;;;;12.18;1.95;;;;;;;;;;4946574;28;20049;-67
2022/07/08 07:43:29;;;;;;;13.23;2.22;;;;;;;;;;4929922;28;20050;-65
2022/07/08 07:45:59;;;;;;;14.48;2.00;;;;;;;;;;4928842;28;20042;-65
2022/07/08 07:48:25;;;;;;;10.00;1.90;;;;;;;;;;4926018;28;20499;-65
2022/07/08 07:50:52;;;;;;;8.82;1.60;;;;;;;;;;4928063;28;20097;-66
2022/07/08 07:53:21;;;;;;;12.80;1.85;;;;;;;;;;4933363;28;22400;-67
2022/07/08 07:55:49;;;;;;;9.30;1.75;;;;;;;;;;4928497;28;20043;-66
2022/07/08 07:58:14;;;;;;;12.95;1.70;;;;;;;;;;4928537;28;20047;-66
2022/07/08 08:00:41;;;;;;;14.15;2.10;;;;;;;;;;4928031;28;20045;-66
2022/07/08 08:03:07;;;;;;;7.40;1.45;;;;;;;;;;4928684;28;20136;-70
2022/07/08 08:05:32;;;;;;;8.63;1.67;;;;;;;;;;4931783;28;20034;-67
2022/07/08 08:07:59;;;;;;;12.75;2.10;;;;;;;;;;4933213;28;20038;-68
2022/07/08 08:10:26;;;;;;;9.00;1.60;;;;;;;;;;4930597;28;20047;-68
2022/07/08 08:12:54;;;;;;;12.35;1.55;;;;;;;;;;4932290;28;20600;-68
2022/07/08 08:15:22;;;;;;;11.82;1.75;;;;;;;;;;4932618;28;20058;-68
2022/07/08 08:17:50;;;;;;;12.25;2.00;;;;;;;;;;4932662;28;20120;-68
2022/07/08 08:20:15;;;;;;;11.13;1.77;;;;;;;;;;4946705;28;20058;-69
2022/07/08 08:22:43;;;;;;;7.75;1.77;;;;;;;;;;4932076;28;20141;-70
2022/07/08 08:25:08;;;;;;;9.93;2.10;;;;;;;;;;4931606;28;20039;-67
2022/07/08 08:27:40;;;;;;;11.93;1.75;;;;;;;;;;4931554;28;20886;-68
2022/07/08 08:30:06;;;;;;;7.25;1.70;;;;;;;;;;4932938;28;20030;-68
2022/07/08 08:32:35;;;;;;;7.70;1.35;;;;;;;;;;4928607;28;21052;-67
2022/07/08 08:35:00;;;;;;;8.75;1.65;;;;;;;;;;4927848;28;20047;-66
2022/07/08 08:37:30;;;;;;;7.40;1.90;;;;;;;;;;4925540;28;20058;-68
2022/07/08 08:39:56;;;;;;;8.80;1.90;;;;;;;;;;4927194;28;20073;-67
2022/07/08 08:42:21;;;;;;;10.73;1.73;;;;;;;;;;4942080;28;20320;-68
2022/07/08 08:44:50;;;;;;;10.10;1.80;;;;;;;;;;4927361;28;20216;-67
2022/07/08 08:47:16;;;;;;;6.20;1.48;;;;;;;;;;4928727;28;20033;-69
2022/07/08 08:49:42;;;;;;;8.68;1.75;;;;;;;;;;4931626;28;20039;-68
2022/07/08 08:52:09;;;;;;;8.00;1.30;;;;;;;;;;4931433;28;20139;-67
2022/07/08 08:54:35;;;;;;;11.55;1.80;;;;;;;;;;4931397;28;20072;-68
2022/07/08 08:57:01;;;;;;;11.57;2.00;;;;;;;;;;4934285;28;20870;-67
2022/07/08 08:59:27;;;;;;;7.78;1.90;;;;;;;;;;4933773;28;21058;-67
2022/07/08 09:01:54;;;;;;;8.23;2.10;;;;;;;;;;4933180;28;20039;-67
2022/07/08 09:04:20;;;;;;;16.42;2.33;;;;;;;;;;4936356;28;20134;-68
2022/07/08 09:06:45;;;;;;;12.88;1.92;;;;;;;;;;4935173;28;20103;-67
2022/07/08 09:09:11;;;;;;;13.85;2.20;;;;;;;;;;4935321;28;20041;-68
2022/07/08 09:11:38;;;;;;;14.77;1.90;;;;;;;;;;4948453;28;20665;-67
2022/07/08 09:14:13;;;;;;;11.63;2.13;;;;;;;;;;4939612;28;21724;-67
2022/07/08 09:16:38;;;;;;;8.57;1.90;;;;;;;;;;4934662;28;20062;-66
2022/07/08 09:19:13;;;;;;;6.78;1.90;;;;;;;;;;4935077;28;20168;-68
2022/07/08 09:21:39;;;;;;;8.82;2.20;;;;;;;;;;4935462;28;20129;-68
2022/07/08 09:24:20;;;;;;;10.88;1.90;;;;;;;;;;4931034;28;20039;-67
2022/07/08 09:26:45;;;;;;;11.03;2.20;;;;;;;;;;4930532;28;20239;-66
2022/07/08 09:29:11;;;;;;;11.77;2.10;;;;;;;;;;4944289;28;20282;-67
2022/07/08 09:31:38;;;;;;;13.27;2.40;;;;;;;;;;4936148;28;20062;-67
2022/07/08 09:34:08;;;;;;;10.85;2.45;;;;;;;;;;4930365;28;20034;-65
2022/07/08 09:36:47;;;;;;;16.40;2.28;;;;;;;;;;4931693;28;20061;-65
2022/07/08 09:39:24;;;;;;;10.90;2.40;;;;;;;;;;4930132;28;20180;-66
2022/07/08 09:41:49;;;;;;;9.25;2.30;;;;;;;;;;4931047;28;20035;-66
2022/07/08 09:44:15;;;;;;;11.05;2.20;;;;;;;;;;4930890;28;20343;-66
2022/07/08 09:46:41;;;;;;;12.23;2.40;;;;;;;;;;4930479;28;20065;-67
2022/07/08 09:49:07;;;;;;;14.38;2.40;;;;;;;;;;4930695;28;20133;-66
2022/07/08 09:51:32;;;;;;;9.90;1.90;;;;;;;;;;4930637;28;20162;-66
2022/07/08 09:54:10;;;;;;;10.63;2.00;;;;;;;;;;4926244;28;20270;-63
2022/07/08 09:56:38;;;;;;;11.48;1.95;;;;;;;;;;4928356;28;22424;-65
2022/07/08 09:59:03;;;;;;;12.38;2.40;;;;;;;;;;4933599;28;20057;-65
2022/07/08 10:01:29;;;;;;;10.07;1.70;;;;;;;;;;4930894;28;20340;-67
2022/07/08 10:03:57;;;;;;;9.73;2.10;;;;;;;;;;4926574;28;20042;-65
2022/07/08 10:06:23;;;;;;;14.52;2.20;;;;;;;;;;4928903;28;20297;-63
2022/07/08 10:08:50;;;;;;;13.10;2.50;;;;;;;;;;4943692;28;20030;-65
2022/07/08 10:11:16;;;;;;;13.18;2.05;;;;;;;;;;4936368;28;20143;-64
2022/07/08 10:13:42;;;;;;;11.65;1.98;;;;;;;;;;4928510;28;20045;-64
2022/07/08 10:16:09;;;;;;;12.30;2.28;;;;;;;;;;4927817;28;20050;-66
2022/07/08 10:18:41;;;;;;;13.23;2.40;;;;;;;;;;4931566;28;20319;-66
2022/07/08 10:21:07;;;;;;;9.45;2.33;;;;;;;;;;4928966;28;20042;-65
2022/07/08 10:23:42;;;;;;;12.20;2.30;;;;;;;;;;4930208;28;20095;-65
2022/07/08 10:26:08;;;;;;;14.48;2.55;;;;;;;;;;4930885;28;20827;-67
2022/07/08 10:28:34;;;;;;;12.45;2.28;;;;;;;;;;4930032;28;20104;-66
2022/07/08 10:31:00;;;;;;;15.48;2.63;;;;;;;;;;4948526;28;20038;-65
2022/07/08 10:33:26;;;;;;;15.90;2.78;;;;;;;;;;4932178;28;20027;-66
2022/07/08 10:36:08;;;;;;;15.02;2.60;;;;;;;;;;4932718;28;20042;-66
2022/07/08 10:38:37;;;;;;;13.02;2.45;;;;;;;;;;4934008;28;20811;-66
2022/07/08 10:41:09;;;;;;;11.80;2.47;;;;;;;;;;4922674;28;20038;-65
2022/07/08 10:43:35;;;;;;;15.25;2.90;;;;;;;;;;4933392;28;20031;-67
2022/07/08 10:46:15;;;;;;;14.35;2.50;;;;;;;;;;4934830;28;20030;-66
2022/07/08 10:48:40;;;;;;;14.68;2.50;;;;;;;;;;4933588;28;20043;-66
2022/07/08 10:51:06;;;;;;;11.37;2.43;;;;;;;;;;4933472;28;20026;-64
2022/07/08 10:53:46;;;;;;;16.20;2.63;;;;;;;;;;4933134;28;20270;-65
2022/07/08 10:56:14;;;;;;;13.25;2.38;;;;;;;;;;4933197;28;20035;-65
2022/07/08 10:58:58;;;;;;;9.93;2.22;;;;;;;;;;4942398;28;20039;-66
2022/07/08 11:01:25;;;;;;;16.42;2.70;;;;;;;;;;4930374;28;20038;-65
2022/07/08 11:03:51;;;;;;;11.93;2.45;;;;;;;;;;4933497;28;20132;-64
2022/07/08 11:06:36;;;;;;;11.00;2.50;;;;;;;;;;4936552;28;20035;-64
2022/07/08 11:09:01;;;;;;;11.27;2.67;;;;;;;;;;4928544;28;20668;-64
2022/07/08 11:11:27;;;;;;;10.82;2.22;;;;;;;;;;4931998;28;20034;-69
2022/07/08 11:13:53;;;;;;;15.75;2.80;;;;;;;;;;4944414;28;20069;-74
2022/07/08 11:16:20;;;;;;;15.82;3.70;;;;;;;;;;4931398;28;20034;-71
2022/07/08 11:18:45;;;;;;;15.50;2.75;;;;;;;;;;4931604;28;20034;-72
2022/07/08 11:21:10;;;;;;;17.75;2.83;;;;;;;;;;4943095;28;20416;-70
2022/07/08 11:23:36;;;;;;;13.15;2.75;;;;;;;;;;4921770;28;20724;-72
2022/07/08 11:26:02;;;;;;;18.20;3.30;;;;;;;;;;4934775;28;20050;-70
2022/07/08 11:28:27;;;;;;;15.43;3.08;;;;;;;;;;4933361;28;20241;-69
2022/07/08 11:30:53;;;;;;;12.35;2.78;;;;;;;;;;4929815;28;20189;-70
2022/07/08 11:33:18;;;;;;;12.98;2.95;;;;;;;;;;4929123;28;20349;-70
2022/07/08 11:35:43;;;;;;;12.93;2.88;;;;;;;;;;4935136;28;20444;-69
2022/07/08 11:38:09;;;;;;;12.77;2.58;;;;;;;;;;4945860;28;20042;-68
2022/07/08 11:40:43;;;;;;;17.15;2.95;;;;;;;;;;4947436;28;20027;-69
2022/07/08 11:43:20;;;;;;;11.55;2.53;;;;;;;;;;4952730;28;20031;-68
2022/07/08 11:45:45;;;;;;;12.85;2.67;;;;;;;;;;4961660;28;20066;-70
2022/07/08 11:48:11;;;;;;;13.98;2.63;;;;;;;;;;4964156;28;20138;-68
2022/07/08 11:50:37;;;;;;;10.27;2.50;;;;;;;;;;4940448;28;20118;-68
2022/07/08 11:53:02;;;;;;;14.35;2.72;;;;;;;;;;4942181;28;20041;-68
2022/07/08 11:55:30;;;;;;;13.90;2.45;;;;;;;;;;4940111;28;20045;-68
2022/07/08 11:58:00;;;;;;;15.13;2.67;;;;;;;;;;4946598;28;20057;-67
2022/07/08 12:00:26;;;;;;;13.30;2.83;;;;;;;;;;4943111;28;20046;-69
2022/07/08 12:02:51;;;;;;;14.20;2.85;;;;;;;;;;4941636;28;20038;-69
2022/07/08 12:05:17;;;;;;;16.55;3.38;;;;;;;;;;4948292;28;20101;-67
2022/07/08 12:07:42;;;;;;;16.10;2.78;;;;;;;;;;4943701;28;20039;-69
2022/07/08 12:10:07;;;;;;;13.80;2.88;;;;;;;;;;4960889;28;20062;-68
2022/07/08 12:12:34;;;;;;;13.43;2.83;;;;;;;;;;4941800;28;20168;-68
2022/07/08 12:15:14;;;;;;;12.70;2.83;;;;;;;;;;4961159;28;20034;-67
2022/07/08 12:17:39;;;;;;;14.82;2.90;;;;;;;;;;4945089;28;20499;-70
2022/07/08 12:20:05;;;;;;;13.23;2.92;;;;;;;;;;4943706;28;20039;-68
2022/07/08 12:22:46;;;;;;;16.08;3.10;;;;;;;;;;4961296;28;20062;-70
2022/07/08 12:25:13;;;;;;;13.35;2.92;;;;;;;;;;4949662;28;20097;-69
2022/07/08 12:27:39;;;;;;;17.25;2.88;;;;;;;;;;4948642;28;20046;-69
2022/07/08 12:30:05;;;;;;;12.48;2.50;;;;;;;;;;4934731;28;20609;-69
2022/07/08 12:32:37;;;;;;;14.57;2.78;;;;;;;;;;4936207;28;20050;-68
2022/07/08 12:35:02;;;;;;;12.80;3.00;;;;;;;;;;4938885;28;20530;-69
2022/07/08 12:37:28;;;;;;;16.02;3.00;;;;;;;;;;4944431;28;20043;-71
2022/07/08 12:39:53;;;;;;;12.38;2.80;;;;;;;;;;4945512;28;20753;-67
2022/07/08 12:42:26;;;;;;;10.80;2.83;;;;;;;;;;4944331;28;20066;-71
2022/07/08 12:44:51;;;;;;;13.55;2.88;;;;;;;;;;4930465;28;20507;-71
2022/07/08 12:47:17;;;;;;;12.35;2.85;;;;;;;;;;4930539;28;20345;-72
2022/07/08 12:49:48;;;;;;;14.27;3.20;;;;;;;;;;4930498;28;20069;-70
2022/07/08 12:52:14;;;;;;;16.73;3.25;;;;;;;;;;4948735;28;20327;-70
2022/07/08 12:54:39;;;;;;;18.95;3.20;;;;;;;;;;4952677;28;20472;-69
2022/07/08 12:57:05;;;;;;;15.10;3.30;;;;;;;;;;4957731;28;20044;-69
2022/07/08 12:59:31;;;;;;;18.10;3.72;;;;;;;;;;4945360;28;20779;-70
2022/07/08 13:01:57;;;;;;;13.55;3.30;;;;;;;;;;4946214;28;20116;-70
2022/07/08 13:04:22;;;;;;;13.52;3.10;;;;;;;;;;4944780;28;20147;-69
2022/07/08 13:06:48;;;;;;;13.60;3.17;;;;;;;;;;4948177;28;20445;-72
2022/07/08 13:09:14;;;;;;;13.82;2.85;;;;;;;;;;4948931;28;20039;-71
2022/07/08 13:11:42;;;;;;;13.15;3.40;;;;;;;;;;4941822;28;20043;-71
2022/07/08 13:14:08;;;;;;;15.98;3.10;;;;;;;;;;4948582;28;20034;-71
2022/07/08 13:16:33;;;;;;;16.88;3.35;;;;;;;;;;4944958;28;20383;-71
2022/07/08 13:18:59;;;;;;;17.25;3.63;;;;;;;;;;4953961;28;20127;-71
2022/07/08 13:21:24;;;;;;;12.98;3.47;;;;;;;;;;4962733;28;20035;-72
2022/07/08 13:23:50;;;;;;;15.13;3.40;;;;;;;;;;4948823;28;20030;-72
2022/07/08 13:26:15;;;;;;;13.38;3.42;;;;;;;;;;4972874;28;20037;-72
2022/07/08 13:28:44;;;;;;;14.63;3.55;;;;;;;;;;4941602;28;20054;-72
2022/07/08 13:31:09;;;;;;;14.48;3.25;;;;;;;;;;4968294;28;20921;-71
2022/07/08 13:33:39;;;;;;;14.18;3.03;;;;;;;;;;4963010;28;20042;-72
2022/07/08 13:36:07;;;;;;;14.05;3.25;;;;;;;;;;4947775;28;20042;-71
2022/07/08 13:38:33;;;;;;;16.08;3.15;;;;;;;;;;4948340;28;20064;-71
2022/07/08 13:41:00;;;;;;;17.92;3.28;;;;;;;;;;4945997;28;20073;-72
2022/07/08 13:43:26;;;;;;;13.27;3.10;;;;;;;;;;4958627;28;20045;-69
2022/07/08 13:45:51;;;;;;;12.75;3.25;;;;;;;;;;4955096;28;20403;-71
2022/07/08 13:48:17;;;;;;;13.00;3.22;;;;;;;;;;4947675;28;21841;-72
2022/07/08 13:50:42;;;;;;;13.15;3.22;;;;;;;;;;4930711;28;20103;-71
2022/07/08 13:53:07;;;;;;;15.27;3.38;;;;;;;;;;4935371;28;20052;-72
2022/07/08 13:55:34;;;;;;;12.57;3.22;;;;;;;;;;4945578;28;20035;-68
2022/07/08 13:57:59;;;;;;;15.70;3.40;;;;;;;;;;4950513;28;20053;-69
2022/07/08 14:00:24;;;;;;;14.85;3.28;;;;;;;;;;4945946;28;20035;-71
2022/07/08 14:02:49;;;;;;;13.10;3.30;;;;;;;;;;4948070;28;20042;-70
2022/07/08 14:05:17;;;;;;;17.85;3.20;;;;;;;;;;4967736;28;20114;-69
2022/07/08 14:07:42;;;;;;;11.45;2.90;;;;;;;;;;4972195;28;20556;-70
2022/07/08 14:10:08;;;;;;;11.20;3.42;;;;;;;;;;4971741;28;20042;-71
2022/07/08 14:12:33;;;;;;;14.27;3.40;;;;;;;;;;4975184;28;20047;-71
2022/07/08 14:15:02;;;;;;;10.70;3.17;;;;;;;;;;4973008;28;20555;-70
2022/07/08 14:17:28;;;;;;;10.77;3.00;;;;;;;;;;4979784;28;20043;-69
2022/07/08 14:19:53;;;;;;;11.30;3.05;;;;;;;;;;4953616;28;20528;-69
2022/07/08 14:22:18;;;;;;;13.20;3.67;;;;;;;;;;4953704;28;20134;-67
2022/07/08 14:24:44;;;;;;;12.52;3.42;;;;;;;;;;4949004;28;20466;-70
2022/07/08 14:27:09;;;;;;;12.27;3.38;;;;;;;;;;4950992;28;20220;-70